createdAt,value
2018-10-21T00:01:05.455Z,7.10
2018-10-21T00:03:34.781Z,7.10
2018-10-21T00:06:03.179Z,7.00
2018-10-21T00:08:31.595Z,7.00
2018-10-21T00:10:59.959Z,7.00
2018-10-21T00:13:28.307Z,7.00
2018-10-21T00:15:56.674Z,7.00
2018-10-21T00:18:25.069Z,7.10
2018-10-21T00:20:53.420Z,7.10
2018-10-21T00:23:22.579Z,7.00
2018-10-21T00:25:51.976Z,7.10
2018-10-21T00:28:20.325Z,7.10
2018-10-21T00:30:48.659Z,7.10
2018-10-21T00:33:17.034Z,7.10
2018-10-21T00:35:45.371Z,7.00
2018-10-21T00:38:13.741Z,7.00
2018-10-21T00:40:42.070Z,7.00
2018-10-21T00:43:10.405Z,6.90
2018-10-21T00:45:38.766Z,6.90
2018-10-21T00:48:07.124Z,7.00
2018-10-21T00:50:35.453Z,7.00
2018-10-21T00:53:03.834Z,6.90
2018-10-21T00:55:32.197Z,6.90
2018-10-21T00:58:00.636Z,6.90
2018-10-21T01:00:28.979Z,6.90
2018-10-21T01:02:57.677Z,6.90
2018-10-21T01:05:26.053Z,6.90
2018-10-21T01:07:54.619Z,6.90
2018-10-21T01:10:22.978Z,6.80
2018-10-21T01:12:51.333Z,6.80
2018-10-21T01:15:20.455Z,6.80
2018-10-21T01:17:48.791Z,6.80
2018-10-21T01:20:17.149Z,6.70
2018-10-21T01:22:45.545Z,6.70
2018-10-21T01:25:13.871Z,6.70
2018-10-21T01:27:42.594Z,6.70
2018-10-21T01:30:11.864Z,6.70
2018-10-21T01:32:40.226Z,6.70
2018-10-21T01:35:08.843Z,6.70
2018-10-21T01:37:37.404Z,6.60
2018-10-21T01:41:12.921Z,6.60
2018-10-21T01:43:41.277Z,6.50
2018-10-21T01:46:09.630Z,6.50
2018-10-21T01:48:37.971Z,6.50
2018-10-21T01:51:06.445Z,6.50
2018-10-21T01:53:35.736Z,6.50
2018-10-21T01:56:04.144Z,6.40
2018-10-21T01:58:32.474Z,6.40
2018-10-21T02:01:00.813Z,6.40
2018-10-21T02:03:29.180Z,6.30
2018-10-21T02:05:57.562Z,6.30
2018-10-21T02:08:25.894Z,6.30
2018-10-21T02:10:54.369Z,6.30
2018-10-21T02:13:22.746Z,6.30
2018-10-21T02:15:51.088Z,6.20
2018-10-21T02:18:19.462Z,6.20
2018-10-21T02:20:47.778Z,6.20
2018-10-21T02:23:16.774Z,6.20
2018-10-21T02:25:45.105Z,6.20
2018-10-21T02:28:13.461Z,6.10
2018-10-21T02:30:41.814Z,6.10
2018-10-21T02:33:10.150Z,6.10
2018-10-21T02:35:38.484Z,6.10
2018-10-21T02:38:06.796Z,6.10
2018-10-21T02:41:46.966Z,6.00
2018-10-21T02:44:18.536Z,6.00
2018-10-21T02:46:47.468Z,5.90
2018-10-21T02:49:16.534Z,5.90
2018-10-21T02:51:49.178Z,5.80
2018-10-21T02:54:22.172Z,5.80
2018-10-21T02:56:50.726Z,5.80
2018-10-21T02:59:19.626Z,5.70
2018-10-21T03:01:47.981Z,5.70
2018-10-21T03:04:16.617Z,5.60
2018-10-21T03:06:44.960Z,5.60
2018-10-21T03:09:13.409Z,5.60
2018-10-21T03:11:41.695Z,5.50
2018-10-21T03:14:10.043Z,5.50
2018-10-21T03:16:38.432Z,5.50
2018-10-21T03:19:06.807Z,5.40
2018-10-21T03:21:35.202Z,5.40
2018-10-21T03:24:03.578Z,5.40
2018-10-21T03:26:31.916Z,5.40
2018-10-21T03:29:00.313Z,5.30
2018-10-21T03:31:29.373Z,5.30
2018-10-21T03:33:57.805Z,5.30
2018-10-21T03:36:26.045Z,5.30
2018-10-21T03:38:54.378Z,5.20
2018-10-21T03:41:22.730Z,5.20
2018-10-21T03:43:51.078Z,5.20
2018-10-21T03:46:19.593Z,5.10
2018-10-21T03:48:47.830Z,5.10
2018-10-21T03:51:16.164Z,5.00
2018-10-21T03:53:44.509Z,5.00
2018-10-21T03:56:12.868Z,5.00
2018-10-21T03:58:41.192Z,5.00
2018-10-21T04:01:09.738Z,4.90
2018-10-21T04:03:38.415Z,4.90
2018-10-21T04:06:06.762Z,4.90
2018-10-21T04:08:35.109Z,5.00
2018-10-21T04:11:03.495Z,5.00
2018-10-21T04:13:31.880Z,5.00
2018-10-21T04:16:00.261Z,5.10
2018-10-21T04:18:28.586Z,5.10
2018-10-21T04:20:56.940Z,5.10
2018-10-21T04:23:25.277Z,5.10
2018-10-21T04:25:53.652Z,5.10
2018-10-21T04:28:22.044Z,5.10
2018-10-21T04:30:50.412Z,5.10
2018-10-21T04:33:52.127Z,5.10
2018-10-21T04:36:22.068Z,5.20
2018-10-21T04:40:05.473Z,5.20
2018-10-21T04:42:33.821Z,5.20
2018-10-21T04:45:02.754Z,5.20
2018-10-21T04:47:31.428Z,5.20
2018-10-21T04:49:59.788Z,5.20
2018-10-21T04:52:29.188Z,5.20
2018-10-21T04:55:02.918Z,5.20
2018-10-21T04:57:31.301Z,5.20
2018-10-21T04:59:59.640Z,5.10
2018-10-21T05:02:28.678Z,5.10
2018-10-21T05:04:57.008Z,5.10
2018-10-21T05:07:25.471Z,5.10
2018-10-21T05:09:53.748Z,5.00
2018-10-21T05:12:22.904Z,5.00
2018-10-21T05:14:51.265Z,5.00
2018-10-21T05:17:19.600Z,4.90
2018-10-21T05:19:48.468Z,4.90
2018-10-21T05:22:16.900Z,4.90
2018-10-21T05:24:45.172Z,4.80
2018-10-21T05:27:13.507Z,4.80
2018-10-21T05:29:41.864Z,4.70
2018-10-21T05:32:10.233Z,4.70
2018-10-21T05:34:38.571Z,4.70
2018-10-21T05:37:08.460Z,4.70
2018-10-21T05:39:36.809Z,4.70
2018-10-21T05:42:05.184Z,4.70
2018-10-21T05:44:34.127Z,4.60
2018-10-21T05:47:02.496Z,4.60
2018-10-21T05:49:30.807Z,4.60
2018-10-21T05:51:59.147Z,4.60
2018-10-21T05:54:27.467Z,4.50
2018-10-21T05:56:55.807Z,4.50
2018-10-21T05:59:24.175Z,4.40
2018-10-21T06:01:53.443Z,4.40
2018-10-21T06:04:22.437Z,4.40
2018-10-21T06:06:50.765Z,4.40
2018-10-21T06:09:19.156Z,4.40
2018-10-21T06:11:48.563Z,4.40
2018-10-21T06:14:16.876Z,4.40
2018-10-21T06:16:52.403Z,4.40
2018-10-21T06:19:27.909Z,4.30
2018-10-21T06:21:56.533Z,4.30
2018-10-21T06:24:25.551Z,4.30
2018-10-21T06:26:54.030Z,4.30
2018-10-21T06:29:22.592Z,4.30
2018-10-21T06:31:51.745Z,4.30
2018-10-21T06:34:20.097Z,4.30
2018-10-21T06:36:48.499Z,4.30
2018-10-21T06:39:16.819Z,4.30
2018-10-21T06:41:45.246Z,4.40
2018-10-21T06:44:13.712Z,4.40
2018-10-21T06:46:42.091Z,4.40
2018-10-21T06:49:10.789Z,4.40
2018-10-21T06:51:40.820Z,4.50
2018-10-21T06:54:09.185Z,4.50
2018-10-21T06:56:38.819Z,4.50
2018-10-21T06:59:07.060Z,4.60
2018-10-21T07:01:35.395Z,4.60
2018-10-21T07:04:04.663Z,4.70
2018-10-21T07:06:32.998Z,4.60
2018-10-21T07:09:02.759Z,4.60
2018-10-21T07:11:31.092Z,4.50
2018-10-21T07:13:59.508Z,4.60
2018-10-21T07:16:27.978Z,4.70
2018-10-21T07:18:56.246Z,4.90
2018-10-21T07:21:24.616Z,5.00
2018-10-21T07:23:52.991Z,5.00
2018-10-21T07:26:21.723Z,5.20
2018-10-21T07:28:50.102Z,5.30
2018-10-21T07:31:18.491Z,5.30
2018-10-21T07:33:46.847Z,5.30
2018-10-21T07:36:15.245Z,5.30
2018-10-21T07:38:43.579Z,5.30
2018-10-21T07:41:11.937Z,5.30
2018-10-21T07:43:40.272Z,5.40
2018-10-21T07:46:08.702Z,5.40
2018-10-21T07:48:36.989Z,5.50
2018-10-21T07:51:05.810Z,5.50
2018-10-21T07:53:34.190Z,5.60
2018-10-21T07:56:02.524Z,5.70
2018-10-21T07:58:30.868Z,5.80
2018-10-21T08:00:59.279Z,5.80
2018-10-21T08:03:27.605Z,5.90
2018-10-21T08:06:18.044Z,6.00
2018-10-21T08:08:46.467Z,6.10
2018-10-21T08:11:16.194Z,6.20
2018-10-21T08:13:44.591Z,6.40
2018-10-21T08:16:13.013Z,6.50
2018-10-21T08:18:41.231Z,6.70
2018-10-21T08:21:09.627Z,6.70
2018-10-21T08:23:37.969Z,6.90
2018-10-21T08:26:06.398Z,6.90
2018-10-21T08:28:34.758Z,7.00
2018-10-21T08:31:03.109Z,7.10
2018-10-21T08:33:31.443Z,7.20
2018-10-21T08:35:59.804Z,7.30
2018-10-21T08:38:28.490Z,7.40
2018-10-21T08:40:56.837Z,7.50
2018-10-21T08:43:25.165Z,7.60
2018-10-21T08:45:53.523Z,7.80
2018-10-21T08:48:23.255Z,7.90
2018-10-21T08:50:52.210Z,8.00
2018-10-21T08:53:20.909Z,8.20
2018-10-21T08:55:49.326Z,8.30
2018-10-21T08:58:17.676Z,8.50
2018-10-21T09:00:46.013Z,8.60
2018-10-21T09:03:14.360Z,8.70
2018-10-21T09:05:42.720Z,8.90
2018-10-21T09:08:11.059Z,9.10
2018-10-21T09:10:39.549Z,9.20
2018-10-21T09:13:07.907Z,9.30
2018-10-21T09:15:36.253Z,9.50
2018-10-21T09:18:06.000Z,9.70
2018-10-21T09:20:34.736Z,9.90
2018-10-21T09:23:09.844Z,10.10
2018-10-21T09:25:38.205Z,10.30
2018-10-21T09:28:07.354Z,10.60
2018-10-21T09:30:35.683Z,10.70
2018-10-21T09:33:04.049Z,10.90
2018-10-21T09:35:32.432Z,11.00
2018-10-21T09:38:00.780Z,11.10
2018-10-21T09:40:29.129Z,11.20
2018-10-21T09:42:57.521Z,11.30
2018-10-21T09:45:25.854Z,11.50
2018-10-21T09:47:54.203Z,11.60
2018-10-21T09:50:22.576Z,11.70
2018-10-21T09:52:50.932Z,11.90
2018-10-21T09:55:20.578Z,12.00
2018-10-21T09:57:49.642Z,12.20
2018-10-21T10:00:23.961Z,12.40
2018-10-21T10:02:57.610Z,12.60
2018-10-21T10:05:26.054Z,12.80
2018-10-21T10:07:55.340Z,13.00
2018-10-21T10:10:24.341Z,13.20
2018-10-21T10:12:52.710Z,13.40
2018-10-21T10:15:22.277Z,13.50
2018-10-21T10:17:50.670Z,13.60
2018-10-21T10:20:18.978Z,13.80
2018-10-21T10:22:47.350Z,13.90
2018-10-21T10:25:15.781Z,14.00
2018-10-21T10:27:44.067Z,14.20
2018-10-21T10:30:13.641Z,14.30
2018-10-21T10:32:43.133Z,14.50
2018-10-21T10:35:12.368Z,14.60
2018-10-21T10:37:40.907Z,14.70
2018-10-21T10:40:12.462Z,14.80
2018-10-21T10:42:41.042Z,14.90
2018-10-21T10:45:09.417Z,15.10
2018-10-21T10:47:38.315Z,15.20
2018-10-21T10:50:08.096Z,15.30
2018-10-21T10:52:37.641Z,15.40
2018-10-21T10:55:07.444Z,15.60
2018-10-21T10:57:35.845Z,15.70
2018-10-21T11:00:04.563Z,15.80
2018-10-21T11:02:32.637Z,15.90
2018-10-21T11:05:01.021Z,16.00
2018-10-21T11:07:29.414Z,16.10
2018-10-21T11:09:57.760Z,16.20
2018-10-21T11:12:26.120Z,16.40
2018-10-21T11:14:54.503Z,16.50
2018-10-21T11:17:22.823Z,16.60
2018-10-21T11:19:51.687Z,16.70
2018-10-21T11:22:20.082Z,16.80
2018-10-21T11:24:49.133Z,16.90
2018-10-21T11:27:18.226Z,17.00
2018-10-21T11:29:47.960Z,17.20
2018-10-21T11:32:16.189Z,17.30
2018-10-21T11:34:44.563Z,17.30
2018-10-21T11:37:13.073Z,17.30
2018-10-21T11:39:42.111Z,17.40
2018-10-21T11:42:10.452Z,17.50
2018-10-21T11:44:38.829Z,17.50
2018-10-21T11:47:07.187Z,17.50
2018-10-21T11:49:35.536Z,17.50
2018-10-21T11:52:05.406Z,17.60
2018-10-21T11:54:33.903Z,17.80
2018-10-21T11:57:02.265Z,18.00
2018-10-21T11:59:30.595Z,18.20
2018-10-21T12:01:58.941Z,18.30
2018-10-21T12:04:27.336Z,18.40
2018-10-21T12:06:55.772Z,18.50
2018-10-21T12:09:24.122Z,18.50
2018-10-21T12:11:53.631Z,18.70
2018-10-21T12:14:21.965Z,18.70
2018-10-21T12:16:50.346Z,18.90
2018-10-21T12:19:18.814Z,19.00
2018-10-21T12:21:47.161Z,19.10
2018-10-21T12:24:15.524Z,19.30
2018-10-21T12:26:43.895Z,19.40
2018-10-21T12:29:12.309Z,19.50
2018-10-21T12:31:40.871Z,19.50
2018-10-21T12:34:09.234Z,19.60
2018-10-21T12:36:37.576Z,19.70
2018-10-21T12:39:08.376Z,19.70
2018-10-21T12:41:37.398Z,19.80
2018-10-21T12:44:06.322Z,19.80
2018-10-21T12:46:34.673Z,19.90
2018-10-21T12:49:03.080Z,20.00
2018-10-21T12:51:31.391Z,20.10
2018-10-21T12:53:59.806Z,20.20
2018-10-21T12:56:28.116Z,20.40
2018-10-21T12:58:56.472Z,20.50
2018-10-21T13:01:24.829Z,20.50
2018-10-21T13:03:53.271Z,20.60
2018-10-21T13:06:21.689Z,20.60
2018-10-21T13:08:50.063Z,20.60
2018-10-21T13:11:19.360Z,20.70
2018-10-21T13:13:47.699Z,20.80
2018-10-21T13:16:16.129Z,20.90
2018-10-21T13:18:44.444Z,20.80
2018-10-21T13:21:12.791Z,20.90
2018-10-21T13:23:41.167Z,20.90
2018-10-21T13:26:09.512Z,21.10
2018-10-21T13:28:37.898Z,21.00
2018-10-21T13:31:06.348Z,21.20
2018-10-21T13:33:34.643Z,21.10
2018-10-21T13:36:03.027Z,21.20
2018-10-21T13:38:31.381Z,21.30
2018-10-21T13:40:59.771Z,21.40
2018-10-21T13:43:28.135Z,21.30
2018-10-21T13:45:56.511Z,21.50
2018-10-21T13:48:25.943Z,21.60
2018-10-21T13:50:55.448Z,21.60
2018-10-21T13:53:23.842Z,21.70
2018-10-21T13:55:52.141Z,21.70
2018-10-21T13:58:20.481Z,21.80
2018-10-21T14:00:48.854Z,21.90
2018-10-21T14:03:17.225Z,21.90
2018-10-21T14:05:45.577Z,22.00
2018-10-21T14:08:14.004Z,22.00
2018-10-21T14:10:42.783Z,22.10
2018-10-21T14:13:11.167Z,22.00
2018-10-21T14:15:39.474Z,21.90
2018-10-21T14:18:07.825Z,21.90
2018-10-21T14:20:36.243Z,22.00
2018-10-21T14:23:04.559Z,22.00
2018-10-21T14:25:32.904Z,22.00
2018-10-21T14:28:01.243Z,22.00
2018-10-21T14:30:29.676Z,21.90
2018-10-21T14:32:58.012Z,22.00
2018-10-21T14:35:26.384Z,22.00
2018-10-21T14:37:54.829Z,22.20
2018-10-21T14:40:23.357Z,22.30
2018-10-21T14:42:52.417Z,22.40
2018-10-21T14:45:20.824Z,22.30
2018-10-21T14:47:49.164Z,22.10
2018-10-21T14:50:17.505Z,21.90
2018-10-21T14:52:45.915Z,21.90
2018-10-21T14:55:15.566Z,22.00
2018-10-21T14:57:43.852Z,22.00
2018-10-21T15:00:13.422Z,22.00
2018-10-21T15:02:42.147Z,22.10
2018-10-21T15:05:20.049Z,22.10
2018-10-21T15:07:48.513Z,22.20
2018-10-21T15:10:16.963Z,22.20
2018-10-21T15:12:45.258Z,22.10
2018-10-21T15:15:13.626Z,21.80
2018-10-21T15:17:42.043Z,21.70
2018-10-21T15:20:12.962Z,21.70
2018-10-21T15:22:41.321Z,21.50
2018-10-21T15:25:10.996Z,21.50
2018-10-21T15:27:39.568Z,21.40
2018-10-21T15:30:08.968Z,21.30
2018-10-21T15:32:38.544Z,21.30
2018-10-21T15:35:07.346Z,21.10
2018-10-21T15:37:36.627Z,21.00
2018-10-21T15:40:06.340Z,21.10
2018-10-21T15:42:34.753Z,20.90
2018-10-21T15:45:03.261Z,20.80
2018-10-21T15:47:31.622Z,20.60
2018-10-21T15:50:00.004Z,20.40
2018-10-21T15:52:28.420Z,20.30
2018-10-21T15:54:56.734Z,20.10
2018-10-21T15:57:25.113Z,20.00
2018-10-21T15:59:53.886Z,19.80
2018-10-21T16:02:22.349Z,19.60
2018-10-21T16:04:50.636Z,19.30
2018-10-21T16:07:19.002Z,19.10
2018-10-21T16:09:47.380Z,18.80
2018-10-21T16:12:15.798Z,18.40
2018-10-21T16:14:44.234Z,18.10
2018-10-21T16:17:12.609Z,17.60
2018-10-21T16:19:41.029Z,17.30
2018-10-21T16:22:09.533Z,17.10
2018-10-21T16:24:37.907Z,16.70
2018-10-21T16:27:06.364Z,16.50
2018-10-21T16:29:35.066Z,16.30
2018-10-21T16:32:03.626Z,16.10
2018-10-21T16:34:32.562Z,15.90
2018-10-21T16:37:00.902Z,15.80
2018-10-21T16:39:29.315Z,15.60
2018-10-21T16:41:59.971Z,15.50
2018-10-21T16:44:28.451Z,15.30
2018-10-21T16:46:56.889Z,15.20
2018-10-21T16:49:25.239Z,15.10
2018-10-21T16:51:53.595Z,15.00
2018-10-21T16:54:22.154Z,15.00
2018-10-21T16:56:50.371Z,14.90
2018-10-21T16:59:18.813Z,14.70
2018-10-21T17:01:47.226Z,14.60
2018-10-21T17:04:15.621Z,14.60
2018-10-21T17:06:44.458Z,14.50
2018-10-21T17:09:14.148Z,14.40
2018-10-21T17:11:42.926Z,14.30
2018-10-21T17:14:11.289Z,14.20
2018-10-21T17:16:39.973Z,14.20
2018-10-21T17:19:08.517Z,14.10
2018-10-21T17:21:36.888Z,14.00
2018-10-21T17:24:05.329Z,13.90
2018-10-21T17:26:33.639Z,13.80
2018-10-21T17:29:02.034Z,13.70
2018-10-21T17:31:30.402Z,13.60
2018-10-21T17:33:58.850Z,13.50
2018-10-21T17:36:27.144Z,13.30
2018-10-21T17:38:55.504Z,13.20
2018-10-21T17:41:23.930Z,13.10
2018-10-21T17:43:52.385Z,13.00
2018-10-21T17:46:20.860Z,12.80
2018-10-21T17:48:49.294Z,12.70
2018-10-21T17:51:17.714Z,12.50
2018-10-21T17:53:46.144Z,12.40
2018-10-21T17:56:14.647Z,12.40
2018-10-21T17:58:43.076Z,12.30
2018-10-21T18:01:11.673Z,12.20
2018-10-21T18:03:40.080Z,12.20
2018-10-21T18:06:08.575Z,12.10
2018-10-21T18:08:37.035Z,12.10
2018-10-21T18:11:06.173Z,12.00
2018-10-21T18:13:34.659Z,12.00
2018-10-21T18:16:03.305Z,11.90
2018-10-21T18:18:31.780Z,11.80
2018-10-21T18:21:00.138Z,11.70
2018-10-21T18:23:28.492Z,11.60
2018-10-21T18:25:56.919Z,11.50
2018-10-21T18:28:25.248Z,11.40
2018-10-21T18:30:54.712Z,11.20
2018-10-21T18:33:23.079Z,11.10
2018-10-21T18:35:51.545Z,11.00
2018-10-21T18:38:19.930Z,11.00
2018-10-21T18:40:48.620Z,10.90
2018-10-21T18:43:16.964Z,10.90
2018-10-21T18:45:45.271Z,10.80
2018-10-21T18:48:13.649Z,10.80
2018-10-21T18:50:42.010Z,10.80
2018-10-21T18:53:10.329Z,10.70
2018-10-21T18:55:38.737Z,10.70
2018-10-21T18:58:07.124Z,10.60
2018-10-21T19:00:35.417Z,10.60
2018-10-21T19:03:03.818Z,10.60
2018-10-21T19:05:32.227Z,10.50
2018-10-21T19:08:00.601Z,10.40
2018-10-21T19:10:28.952Z,10.40
2018-10-21T19:13:00.046Z,10.30
2018-10-21T19:15:25.662Z,10.40
2018-10-21T19:17:54.028Z,10.30
2018-10-21T19:20:22.381Z,10.30
2018-10-21T19:22:50.752Z,10.30
2018-10-21T19:25:19.138Z,10.20
2018-10-21T19:27:48.655Z,10.20
2018-10-21T19:30:17.003Z,10.20
2018-10-21T19:32:45.415Z,10.20
2018-10-21T19:35:14.740Z,10.20
2018-10-21T19:37:43.091Z,10.20
2018-10-21T19:40:13.642Z,10.10
2018-10-21T19:42:42.581Z,10.10
2018-10-21T19:45:11.927Z,10.00
2018-10-21T19:47:40.844Z,9.90
2018-10-21T19:50:10.621Z,9.90
2018-10-21T19:52:39.595Z,9.90
2018-10-21T19:55:08.721Z,9.80
2018-10-21T19:57:37.076Z,9.80
2018-10-21T20:00:07.616Z,9.70
2018-10-21T20:02:36.654Z,9.60
2018-10-21T20:05:05.681Z,9.60
2018-10-21T20:07:34.051Z,9.50
2018-10-21T20:10:02.500Z,9.50
2018-10-21T20:12:30.835Z,9.40
2018-10-21T20:15:00.561Z,9.30
2018-10-21T20:17:29.802Z,9.30
2018-10-21T20:19:58.162Z,9.20
2018-10-21T20:22:26.523Z,9.20
2018-10-21T20:24:54.887Z,9.10
2018-10-21T20:27:23.217Z,9.10
2018-10-21T20:29:51.570Z,9.00
2018-10-21T20:32:19.951Z,9.00
2018-10-21T20:34:48.281Z,8.90
2018-10-21T20:37:16.668Z,8.80
2018-10-21T20:39:45.061Z,8.80
2018-10-21T20:42:13.497Z,8.70
2018-10-21T20:44:41.799Z,8.70
2018-10-21T20:47:10.157Z,8.60
2018-10-21T20:49:38.824Z,8.60
2018-10-21T20:52:07.525Z,8.50
2018-10-21T20:54:41.189Z,8.50
2018-10-21T20:57:10.557Z,8.40
2018-10-21T20:59:40.995Z,8.40
2018-10-21T21:02:10.942Z,8.30
2018-10-21T21:04:39.707Z,8.20
2018-10-21T21:07:08.621Z,8.20
2018-10-21T21:09:37.333Z,8.10
2018-10-21T21:12:05.829Z,8.10
2018-10-21T21:14:34.352Z,8.10
2018-10-21T21:17:03.324Z,8.00
2018-10-21T21:19:31.737Z,8.00
2018-10-21T21:22:00.130Z,8.00
2018-10-21T21:24:28.575Z,7.90
2018-10-21T21:26:56.970Z,7.90
2018-10-21T21:29:26.237Z,7.90
2018-10-21T21:31:54.601Z,7.90
2018-10-21T21:34:22.972Z,7.90
2018-10-21T21:36:51.327Z,7.90
2018-10-21T21:39:19.681Z,7.90
2018-10-21T21:41:48.059Z,7.80
2018-10-21T21:44:16.407Z,7.80
2018-10-21T21:46:44.851Z,7.80
2018-10-21T21:49:14.009Z,7.80
2018-10-21T21:51:42.344Z,7.80
2018-10-21T21:54:12.271Z,7.80
2018-10-21T21:56:40.982Z,7.80
2018-10-21T21:59:09.420Z,7.80
2018-10-21T22:01:38.429Z,7.70
2018-10-21T22:04:07.620Z,7.70
2018-10-21T22:06:36.126Z,7.70
2018-10-21T22:09:07.795Z,7.70
2018-10-21T22:11:36.178Z,7.60
2018-10-21T22:14:04.899Z,7.60
2018-10-21T22:16:33.269Z,7.60
2018-10-21T22:19:01.608Z,7.60
2018-10-21T22:21:30.079Z,7.50
2018-10-21T22:23:58.533Z,7.50
2018-10-21T22:26:26.825Z,7.50
2018-10-21T22:28:55.149Z,7.40
2018-10-21T22:31:23.531Z,7.40
2018-10-21T22:33:51.884Z,7.40
2018-10-21T22:36:20.228Z,7.40
2018-10-21T22:38:48.565Z,7.30
2018-10-21T22:41:16.924Z,7.30
2018-10-21T22:43:45.333Z,7.30
2018-10-21T22:46:14.493Z,7.30
2018-10-21T22:48:42.776Z,7.20
2018-10-21T22:51:11.080Z,7.20
2018-10-21T22:53:39.435Z,7.20
2018-10-21T22:56:07.788Z,7.20
2018-10-21T22:58:36.150Z,7.20
2018-10-21T23:01:05.043Z,7.10
2018-10-21T23:03:33.343Z,7.10
2018-10-21T23:06:01.770Z,7.10
2018-10-21T23:08:30.084Z,7.00
2018-10-21T23:10:58.472Z,7.00
2018-10-21T23:13:26.781Z,7.00
2018-10-21T23:15:55.160Z,6.90
2018-10-21T23:18:24.189Z,7.00
2018-10-21T23:20:52.521Z,6.90
2018-10-21T23:23:20.946Z,6.90
2018-10-21T23:25:49.292Z,6.90
2018-10-21T23:28:18.696Z,6.90
2018-10-21T23:30:47.000Z,6.90
2018-10-21T23:33:15.370Z,6.90
2018-10-21T23:35:43.717Z,6.90
2018-10-21T23:38:12.049Z,6.90
2018-10-21T23:40:40.394Z,6.90
2018-10-21T23:43:08.791Z,6.80
2018-10-21T23:45:37.137Z,6.80
2018-10-21T23:48:05.659Z,6.80
2018-10-21T23:50:36.418Z,6.80
2018-10-21T23:53:05.155Z,6.80
2018-10-21T23:55:33.527Z,6.70
2018-10-21T23:58:01.924Z,6.70
